This is the latest recevied weather packets stored in our database for station/object G1YBJ-13. If no packets are shown the sender has not sent any weather packets the latest 10 day(s).
| Time | Temp. | Humidity | Pressure | Rain* | Wind** | Luminosity | Snow |
|---|---|---|---|---|---|---|---|
| 1777279985 | 18.89° C | 57% | 1025.2 hPa | - | - | - | - |
| 1777279083 | 17.22° C | 57% | 1025.2 hPa | - | - | - | - |
| 1777278182 | 16.67° C | 57% | 1025.1 hPa | - | - | - | - |
| 1777277281 | 16.11° C | 60% | 1025.1 hPa | - | - | - | - |
| 1777276379 | 16.67° C | 60% | 1025.3 hPa | - | - | - | - |
| 1777275477 | 16.11° C | 61% | 1025.3 hPa | - | - | - | - |
| 1777274576 | 15° C | 63% | 1025.3 hPa | - | - | - | - |
| 1777273674 | 13.89° C | 64% | 1025.4 hPa | - | - | - | - |
| 1777272772 | 12.78° C | 66% | 1025.4 hPa | - | - | - | - |
| 1777271871 | 12.22° C | 69% | 1025.3 hPa | - | - | - | - |
| 1777270969 | 11.67° C | 69% | 1025.3 hPa | - | - | - | - |
| 1777270067 | 10.56° C | 71% | 1025.3 hPa | - | - | - | - |
| 1777269165 | 10.56° C | 72% | 1025.3 hPa | - | - | - | - |
| 1777268264 | 10.56° C | 72% | 1025.1 hPa | - | - | - | - |
| 1777267362 | 10° C | 73% | 1025.1 hPa | - | - | - | - |
| 1777266460 | 9.44° C | 74% | 1025 hPa | - | - | - | - |
| 1777265558 | 8.89° C | 74% | 1025 hPa | - | - | - | - |
| 1777264657 | 8.89° C | 74% | 1025.1 hPa | - | - | - | - |
| 1777263756 | 8.89° C | 73% | 1025 hPa | - | - | - | - |
| 1777262855 | 9.44° C | 73% | 1025 hPa | - | - | - | - |
| 1777261955 | 9.44° C | 73% | 1025.2 hPa | - | - | - | - |
| 1777261054 | 9.44° C | 74% | 1025 hPa | - | - | - | - |
| 1777260152 | 10° C | 72% | 1025 hPa | - | - | - | - |
| 1777259249 | 10° C | 73% | 1025 hPa | - | - | - | - |
| 1777258348 | 10.56° C | 71% | 1025.1 hPa | - | - | - | - |
* Rain since midnight (hover to see other rain measurements)
** Current wind speed in m/s (hover to see current wind gust speed)